sensor_id;sensor_type;location;lat;lon;timestamp;temperature;humidity
3626;DHT22;1827;50.534;8.316;2024-03-25T00:01:04;6.00;1.00
3626;DHT22;1827;50.534;8.316;2024-03-25T00:03:30;5.90;1.00
3626;DHT22;1827;50.534;8.316;2024-03-25T00:05:56;6.00;1.00
3626;DHT22;1827;50.534;8.316;2024-03-25T00:08:22;5.90;1.00
3626;DHT22;1827;50.534;8.316;2024-03-25T00:10:48;5.90;1.00
3626;DHT22;1827;50.534;8.316;2024-03-25T00:13:13;5.80;1.00
3626;DHT22;1827;50.534;8.316;2024-03-25T00:15:40;5.90;1.00
3626;DHT22;1827;50.534;8.316;2024-03-25T00:18:07;5.90;1.00
3626;DHT22;1827;50.534;8.316;2024-03-25T00:20:32;5.70;2.40
3626;DHT22;1827;50.534;8.316;2024-03-25T00:22:58;5.60;8.10
3626;DHT22;1827;50.534;8.316;2024-03-25T00:25:23;5.50;21.30
3626;DHT22;1827;50.534;8.316;2024-03-25T00:27:49;5.50;34.90
3626;DHT22;1827;50.534;8.316;2024-03-25T00:30:15;5.50;48.50
3626;DHT22;1827;50.534;8.316;2024-03-25T00:32:40;5.50;55.10
3626;DHT22;1827;50.534;8.316;2024-03-25T00:35:06;5.50;98.10
3626;DHT22;1827;50.534;8.316;2024-03-25T00:37:32;5.60;94.30
3626;DHT22;1827;50.534;8.316;2024-03-25T00:39:57;5.50;96.80
3626;DHT22;1827;50.534;8.316;2024-03-25T00:42:23;5.60;99.20
3626;DHT22;1827;50.534;8.316;2024-03-25T00:44:49;5.60;99.90
3626;DHT22;1827;50.534;8.316;2024-03-25T00:47:14;5.60;99.90
3626;DHT22;1827;50.534;8.316;2024-03-25T00:49:40;5.60;99.90
3626;DHT22;1827;50.534;8.316;2024-03-25T00:52:05;5.50;99.90
3626;DHT22;1827;50.534;8.316;2024-03-25T00:54:31;5.50;99.90
3626;DHT22;1827;50.534;8.316;2024-03-25T00:56:58;5.50;99.90
3626;DHT22;1827;50.534;8.316;2024-03-25T00:59:23;5.50;97.60
3626;DHT22;1827;50.534;8.316;2024-03-25T01:01:50;5.40;98.70
3626;DHT22;1827;50.534;8.316;2024-03-25T01:04:15;5.40;99.90
3626;DHT22;1827;50.534;8.316;2024-03-25T01:06:41;5.40;99.90
3626;DHT22;1827;50.534;8.316;2024-03-25T01:09:07;5.50;99.90
3626;DHT22;1827;50.534;8.316;2024-03-25T01:11:33;5.50;99.90
3626;DHT22;1827;50.534;8.316;2024-03-25T01:13:58;5.50;99.90
3626;DHT22;1827;50.534;8.316;2024-03-25T01:16:24;5.50;99.90
3626;DHT22;1827;50.534;8.316;2024-03-25T01:18:50;5.50;99.90
3626;DHT22;1827;50.534;8.316;2024-03-25T01:21:16;5.40;99.90
3626;DHT22;1827;50.534;8.316;2024-03-25T01:23:41;5.40;99.90
3626;DHT22;1827;50.534;8.316;2024-03-25T01:26:07;5.50;99.90
3626;DHT22;1827;50.534;8.316;2024-03-25T01:28:32;5.50;99.90
3626;DHT22;1827;50.534;8.316;2024-03-25T01:30:58;5.40;99.90
3626;DHT22;1827;50.534;8.316;2024-03-25T01:33:23;5.60;99.90
3626;DHT22;1827;50.534;8.316;2024-03-25T01:35:49;5.50;99.90
3626;DHT22;1827;50.534;8.316;2024-03-25T01:38:15;5.50;99.90
3626;DHT22;1827;50.534;8.316;2024-03-25T01:40:41;5.40;99.90
3626;DHT22;1827;50.534;8.316;2024-03-25T01:43:07;5.40;99.90
3626;DHT22;1827;50.534;8.316;2024-03-25T01:45:33;5.40;99.90
3626;DHT22;1827;50.534;8.316;2024-03-25T01:48:00;5.40;99.90
3626;DHT22;1827;50.534;8.316;2024-03-25T01:50:27;5.40;99.90
3626;DHT22;1827;50.534;8.316;2024-03-25T01:52:54;5.50;99.90
3626;DHT22;1827;50.534;8.316;2024-03-25T01:55:24;5.40;99.90
3626;DHT22;1827;50.534;8.316;2024-03-25T01:57:51;5.40;99.90
3626;DHT22;1827;50.534;8.316;2024-03-25T02:00:17;5.40;99.90
3626;DHT22;1827;50.534;8.316;2024-03-25T02:02:48;5.40;99.90
3626;DHT22;1827;50.534;8.316;2024-03-25T02:05:14;5.30;99.90
3626;DHT22;1827;50.534;8.316;2024-03-25T02:07:40;5.40;99.90
3626;DHT22;1827;50.534;8.316;2024-03-25T02:10:07;5.30;99.90
3626;DHT22;1827;50.534;8.316;2024-03-25T02:12:38;5.30;99.90
3626;DHT22;1827;50.534;8.316;2024-03-25T02:15:04;5.30;99.90
3626;DHT22;1827;50.534;8.316;2024-03-25T02:17:30;5.20;99.90
3626;DHT22;1827;50.534;8.316;2024-03-25T02:19:56;5.20;99.90
3626;DHT22;1827;50.534;8.316;2024-03-25T02:22:23;5.20;99.90
3626;DHT22;1827;50.534;8.316;2024-03-25T02:24:49;5.10;99.90
3626;DHT22;1827;50.534;8.316;2024-03-25T02:27:15;5.10;99.90
3626;DHT22;1827;50.534;8.316;2024-03-25T02:29:41;5.10;99.90
3626;DHT22;1827;50.534;8.316;2024-03-25T02:32:07;5.00;99.90
3626;DHT22;1827;50.534;8.316;2024-03-25T02:34:39;5.00;99.90
3626;DHT22;1827;50.534;8.316;2024-03-25T02:37:05;5.10;99.90
3626;DHT22;1827;50.534;8.316;2024-03-25T02:39:31;5.10;99.90
3626;DHT22;1827;50.534;8.316;2024-03-25T02:41:56;5.10;99.90
3626;DHT22;1827;50.534;8.316;2024-03-25T02:44:22;5.10;99.90
3626;DHT22;1827;50.534;8.316;2024-03-25T02:46:48;5.20;99.90
3626;DHT22;1827;50.534;8.316;2024-03-25T02:49:14;5.20;99.90
3626;DHT22;1827;50.534;8.316;2024-03-25T02:51:39;5.20;99.90
3626;DHT22;1827;50.534;8.316;2024-03-25T02:54:05;5.20;99.90
3626;DHT22;1827;50.534;8.316;2024-03-25T02:56:30;5.30;99.90
3626;DHT22;1827;50.534;8.316;2024-03-25T02:58:56;5.30;97.10
3626;DHT22;1827;50.534;8.316;2024-03-25T03:01:21;5.30;88.50
3626;DHT22;1827;50.534;8.316;2024-03-25T03:03:49;5.20;80.30
3626;DHT22;1827;50.534;8.316;2024-03-25T03:06:15;5.20;82.80
3626;DHT22;1827;50.534;8.316;2024-03-25T03:08:41;5.20;84.70
3626;DHT22;1827;50.534;8.316;2024-03-25T03:11:06;5.20;87.80
3626;DHT22;1827;50.534;8.316;2024-03-25T03:13:32;5.20;90.50
3626;DHT22;1827;50.534;8.316;2024-03-25T03:15:57;5.20;92.00
3626;DHT22;1827;50.534;8.316;2024-03-25T03:18:23;5.20;99.90
3626;DHT22;1827;50.534;8.316;2024-03-25T03:20:49;5.20;99.90
3626;DHT22;1827;50.534;8.316;2024-03-25T03:23:14;5.20;99.90
3626;DHT22;1827;50.534;8.316;2024-03-25T03:25:40;5.20;99.90
3626;DHT22;1827;50.534;8.316;2024-03-25T03:28:06;5.20;99.90
3626;DHT22;1827;50.534;8.316;2024-03-25T03:30:31;5.20;99.90
3626;DHT22;1827;50.534;8.316;2024-03-25T03:32:57;5.20;99.90
3626;DHT22;1827;50.534;8.316;2024-03-25T03:35:22;5.20;99.90
3626;DHT22;1827;50.534;8.316;2024-03-25T03:37:48;5.10;99.90
3626;DHT22;1827;50.534;8.316;2024-03-25T03:40:14;5.10;99.90
3626;DHT22;1827;50.534;8.316;2024-03-25T03:42:39;5.10;99.90
3626;DHT22;1827;50.534;8.316;2024-03-25T03:45:07;5.10;99.90
3626;DHT22;1827;50.534;8.316;2024-03-25T03:47:32;5.10;99.90
3626;DHT22;1827;50.534;8.316;2024-03-25T03:49:58;5.00;99.90
3626;DHT22;1827;50.534;8.316;2024-03-25T03:52:24;4.90;99.90
3626;DHT22;1827;50.534;8.316;2024-03-25T03:54:50;4.80;99.90
3626;DHT22;1827;50.534;8.316;2024-03-25T03:57:15;4.90;99.90
3626;DHT22;1827;50.534;8.316;2024-03-25T03:59:41;4.80;99.90
3626;DHT22;1827;50.534;8.316;2024-03-25T04:02:07;4.70;99.90
3626;DHT22;1827;50.534;8.316;2024-03-25T04:04:33;4.70;99.90
3626;DHT22;1827;50.534;8.316;2024-03-25T04:07:01;4.70;1.00
3626;DHT22;1827;50.534;8.316;2024-03-25T04:09:27;4.60;1.00
3626;DHT22;1827;50.534;8.316;2024-03-25T04:11:54;4.60;1.00
3626;DHT22;1827;50.534;8.316;2024-03-25T04:14:20;4.60;1.00
3626;DHT22;1827;50.534;8.316;2024-03-25T04:16:46;4.50;1.00
3626;DHT22;1827;50.534;8.316;2024-03-25T04:19:12;4.40;1.00
3626;DHT22;1827;50.534;8.316;2024-03-25T04:21:38;4.40;1.00
3626;DHT22;1827;50.534;8.316;2024-03-25T04:24:04;4.40;1.00
3626;DHT22;1827;50.534;8.316;2024-03-25T04:26:31;4.40;1.00
3626;DHT22;1827;50.534;8.316;2024-03-25T04:28:57;4.30;1.00
3626;DHT22;1827;50.534;8.316;2024-03-25T04:31:23;4.30;1.00
3626;DHT22;1827;50.534;8.316;2024-03-25T04:33:48;4.40;1.00
3626;DHT22;1827;50.534;8.316;2024-03-25T04:36:14;4.30;1.00
3626;DHT22;1827;50.534;8.316;2024-03-25T04:38:39;4.30;1.00
3626;DHT22;1827;50.534;8.316;2024-03-25T04:41:05;4.30;1.00
3626;DHT22;1827;50.534;8.316;2024-03-25T04:43:30;4.30;1.00
3626;DHT22;1827;50.534;8.316;2024-03-25T04:46:00;4.40;1.00
3626;DHT22;1827;50.534;8.316;2024-03-25T04:48:25;4.40;1.00
3626;DHT22;1827;50.534;8.316;2024-03-25T04:50:51;4.40;1.00
3626;DHT22;1827;50.534;8.316;2024-03-25T04:53:16;4.40;1.00
3626;DHT22;1827;50.534;8.316;2024-03-25T04:55:42;4.40;1.00
3626;DHT22;1827;50.534;8.316;2024-03-25T04:58:08;4.40;1.00
3626;DHT22;1827;50.534;8.316;2024-03-25T05:00:33;4.40;1.00
3626;DHT22;1827;50.534;8.316;2024-03-25T05:02:59;4.40;1.00
3626;DHT22;1827;50.534;8.316;2024-03-25T05:05:24;4.30;1.00
3626;DHT22;1827;50.534;8.316;2024-03-25T05:07:50;4.30;1.00
3626;DHT22;1827;50.534;8.316;2024-03-25T05:10:16;4.30;1.00
3626;DHT22;1827;50.534;8.316;2024-03-25T05:12:41;4.30;1.00
3626;DHT22;1827;50.534;8.316;2024-03-25T05:15:09;4.30;1.00
3626;DHT22;1827;50.534;8.316;2024-03-25T05:17:36;4.20;3.50
3626;DHT22;1827;50.534;8.316;2024-03-25T05:20:02;4.30;17.80
3626;DHT22;1827;50.534;8.316;2024-03-25T05:22:30;4.30;23.00
3626;DHT22;1827;50.534;8.316;2024-03-25T05:24:56;4.20;45.90
3626;DHT22;1827;50.534;8.316;2024-03-25T05:27:21;4.30;88.20
3626;DHT22;1827;50.534;8.316;2024-03-25T05:29:48;4.30;97.90
3626;DHT22;1827;50.534;8.316;2024-03-25T05:32:14;4.30;99.90
3626;DHT22;1827;50.534;8.316;2024-03-25T05:34:41;4.30;99.90
3626;DHT22;1827;50.534;8.316;2024-03-25T05:37:07;4.20;88.10
3626;DHT22;1827;50.534;8.316;2024-03-25T05:39:33;4.10;76.70
3626;DHT22;1827;50.534;8.316;2024-03-25T05:41:59;4.00;83.90
3626;DHT22;1827;50.534;8.316;2024-03-25T05:44:24;4.00;99.90
3626;DHT22;1827;50.534;8.316;2024-03-25T05:46:50;3.90;99.90
3626;DHT22;1827;50.534;8.316;2024-03-25T05:49:16;3.80;99.90
3626;DHT22;1827;50.534;8.316;2024-03-25T05:51:41;3.80;99.90
3626;DHT22;1827;50.534;8.316;2024-03-25T05:54:07;3.90;99.90
3626;DHT22;1827;50.534;8.316;2024-03-25T05:56:32;4.00;99.90
3626;DHT22;1827;50.534;8.316;2024-03-25T05:58:59;4.10;99.90
3626;DHT22;1827;50.534;8.316;2024-03-25T06:01:25;4.20;99.90
3626;DHT22;1827;50.534;8.316;2024-03-25T06:03:52;4.20;99.90
3626;DHT22;1827;50.534;8.316;2024-03-25T06:06:17;4.20;99.90
3626;DHT22;1827;50.534;8.316;2024-03-25T06:08:43;4.20;99.90
3626;DHT22;1827;50.534;8.316;2024-03-25T06:11:09;4.20;99.90
3626;DHT22;1827;50.534;8.316;2024-03-25T06:13:35;4.20;99.90
3626;DHT22;1827;50.534;8.316;2024-03-25T06:16:00;4.30;99.90
3626;DHT22;1827;50.534;8.316;2024-03-25T06:18:26;4.20;99.90
3626;DHT22;1827;50.534;8.316;2024-03-25T06:20:52;4.20;99.90
3626;DHT22;1827;50.534;8.316;2024-03-25T06:23:27;4.30;99.90
3626;DHT22;1827;50.534;8.316;2024-03-25T06:25:54;4.30;99.90
3626;DHT22;1827;50.534;8.316;2024-03-25T06:28:20;4.50;99.90
3626;DHT22;1827;50.534;8.316;2024-03-25T06:30:46;4.60;99.90
3626;DHT22;1827;50.534;8.316;2024-03-25T06:33:31;4.50;99.90
3626;DHT22;1827;50.534;8.316;2024-03-25T06:36:15;4.40;99.90
3626;DHT22;1827;50.534;8.316;2024-03-25T06:38:41;4.40;99.90
3626;DHT22;1827;50.534;8.316;2024-03-25T06:41:07;4.40;99.90
3626;DHT22;1827;50.534;8.316;2024-03-25T06:43:32;4.40;99.90
3626;DHT22;1827;50.534;8.316;2024-03-25T06:45:58;4.50;99.90
3626;DHT22;1827;50.534;8.316;2024-03-25T06:48:24;4.60;99.90
3626;DHT22;1827;50.534;8.316;2024-03-25T06:50:53;4.70;99.90
3626;DHT22;1827;50.534;8.316;2024-03-25T06:53:19;4.50;99.90
3626;DHT22;1827;50.534;8.316;2024-03-25T06:56:18;4.50;99.90
3626;DHT22;1827;50.534;8.316;2024-03-25T06:58:37;4.50;99.90
3626;DHT22;1827;50.534;8.316;2024-03-25T07:01:04;4.70;99.90
3626;DHT22;1827;50.534;8.316;2024-03-25T07:03:29;4.90;99.90
3626;DHT22;1827;50.534;8.316;2024-03-25T07:05:55;5.10;99.90
3626;DHT22;1827;50.534;8.316;2024-03-25T07:08:22;5.60;99.90
3626;DHT22;1827;50.534;8.316;2024-03-25T07:10:48;5.90;99.90
3626;DHT22;1827;50.534;8.316;2024-03-25T07:13:14;5.90;99.90
3626;DHT22;1827;50.534;8.316;2024-03-25T07:15:39;6.10;99.90
3626;DHT22;1827;50.534;8.316;2024-03-25T07:18:06;6.10;99.90
3626;DHT22;1827;50.534;8.316;2024-03-25T07:20:32;6.10;99.90
3626;DHT22;1827;50.534;8.316;2024-03-25T07:22:57;6.50;98.60
3626;DHT22;1827;50.534;8.316;2024-03-25T07:25:23;6.60;5.70
3626;DHT22;1827;50.534;8.316;2024-03-25T07:27:49;6.80;1.00
3626;DHT22;1827;50.534;8.316;2024-03-25T07:30:15;7.30;1.00
3626;DHT22;1827;50.534;8.316;2024-03-25T07:32:41;7.30;1.00
3626;DHT22;1827;50.534;8.316;2024-03-25T07:35:08;7.00;1.00
3626;DHT22;1827;50.534;8.316;2024-03-25T07:37:35;6.60;1.00
3626;DHT22;1827;50.534;8.316;2024-03-25T07:40:01;6.50;1.00
3626;DHT22;1827;50.534;8.316;2024-03-25T07:42:26;6.30;1.00
3626;DHT22;1827;50.534;8.316;2024-03-25T07:44:52;6.30;1.00
3626;DHT22;1827;50.534;8.316;2024-03-25T07:47:18;6.20;1.00
3626;DHT22;1827;50.534;8.316;2024-03-25T07:49:43;6.40;1.00
3626;DHT22;1827;50.534;8.316;2024-03-25T07:52:10;6.40;1.00
3626;DHT22;1827;50.534;8.316;2024-03-25T07:54:36;6.70;1.00
3626;DHT22;1827;50.534;8.316;2024-03-25T07:57:03;7.40;1.00
3626;DHT22;1827;50.534;8.316;2024-03-25T07:59:29;7.70;99.90
3626;DHT22;1827;50.534;8.316;2024-03-25T08:01:55;8.00;99.90
3626;DHT22;1827;50.534;8.316;2024-03-25T08:04:20;8.20;99.90
3626;DHT22;1827;50.534;8.316;2024-03-25T08:06:48;8.20;99.90
3626;DHT22;1827;50.534;8.316;2024-03-25T08:09:13;8.10;99.90
3626;DHT22;1827;50.534;8.316;2024-03-25T08:11:41;8.20;99.90
3626;DHT22;1827;50.534;8.316;2024-03-25T08:14:09;8.30;40.40
3626;DHT22;1827;50.534;8.316;2024-03-25T08:16:34;7.90;1.00
3626;DHT22;1827;50.534;8.316;2024-03-25T08:19:00;7.70;1.00
3626;DHT22;1827;50.534;8.316;2024-03-25T08:21:27;7.50;1.00
3626;DHT22;1827;50.534;8.316;2024-03-25T08:23:54;7.60;1.00
3626;DHT22;1827;50.534;8.316;2024-03-25T08:26:20;8.10;1.00
3626;DHT22;1827;50.534;8.316;2024-03-25T08:28:45;9.00;1.00
3626;DHT22;1827;50.534;8.316;2024-03-25T08:31:11;9.30;1.00
3626;DHT22;1827;50.534;8.316;2024-03-25T08:33:37;9.10;1.00
3626;DHT22;1827;50.534;8.316;2024-03-25T08:36:03;8.60;1.00
3626;DHT22;1827;50.534;8.316;2024-03-25T08:38:29;8.30;1.00
3626;DHT22;1827;50.534;8.316;2024-03-25T08:40:54;8.10;1.00
3626;DHT22;1827;50.534;8.316;2024-03-25T08:43:20;8.30;1.00
3626;DHT22;1827;50.534;8.316;2024-03-25T08:45:46;8.70;1.00
3626;DHT22;1827;50.534;8.316;2024-03-25T08:48:12;9.20;1.00
3626;DHT22;1827;50.534;8.316;2024-03-25T08:50:37;9.50;1.00
3626;DHT22;1827;50.534;8.316;2024-03-25T08:53:03;9.50;1.00
3626;DHT22;1827;50.534;8.316;2024-03-25T08:55:29;9.40;1.00
3626;DHT22;1827;50.534;8.316;2024-03-25T08:57:54;9.50;1.00
3626;DHT22;1827;50.534;8.316;2024-03-25T09:00:20;9.70;1.00
3626;DHT22;1827;50.534;8.316;2024-03-25T09:02:46;10.20;1.00
3626;DHT22;1827;50.534;8.316;2024-03-25T09:05:11;10.50;1.00
3626;DHT22;1827;50.534;8.316;2024-03-25T09:07:39;10.70;1.00
3626;DHT22;1827;50.534;8.316;2024-03-25T09:10:04;11.00;1.00
3626;DHT22;1827;50.534;8.316;2024-03-25T09:12:49;11.30;1.00
3626;DHT22;1827;50.534;8.316;2024-03-25T09:15:14;11.00;1.00
3626;DHT22;1827;50.534;8.316;2024-03-25T09:17:40;10.70;1.00
3626;DHT22;1827;50.534;8.316;2024-03-25T09:20:06;10.40;1.00
3626;DHT22;1827;50.534;8.316;2024-03-25T09:22:46;10.10;1.00
3626;DHT22;1827;50.534;8.316;2024-03-25T09:25:12;9.60;1.00
3626;DHT22;1827;50.534;8.316;2024-03-25T09:27:39;9.70;1.00
3626;DHT22;1827;50.534;8.316;2024-03-25T09:30:05;9.70;1.00
3626;DHT22;1827;50.534;8.316;2024-03-25T09:32:31;10.40;1.00
3626;DHT22;1827;50.534;8.316;2024-03-25T09:34:57;10.90;1.00
3626;DHT22;1827;50.534;8.316;2024-03-25T09:37:22;11.10;1.00
3626;DHT22;1827;50.534;8.316;2024-03-25T09:39:48;10.50;1.00
3626;DHT22;1827;50.534;8.316;2024-03-25T09:42:18;10.60;1.00
3626;DHT22;1827;50.534;8.316;2024-03-25T09:44:46;10.50;1.00
3626;DHT22;1827;50.534;8.316;2024-03-25T09:47:12;11.30;1.00
3626;DHT22;1827;50.534;8.316;2024-03-25T09:49:38;11.50;1.00
3626;DHT22;1827;50.534;8.316;2024-03-25T09:52:06;11.90;1.00
3626;DHT22;1827;50.534;8.316;2024-03-25T09:54:33;12.30;1.00
3626;DHT22;1827;50.534;8.316;2024-03-25T09:56:59;12.50;1.00
3626;DHT22;1827;50.534;8.316;2024-03-25T09:59:24;11.70;1.00
3626;DHT22;1827;50.534;8.316;2024-03-25T10:01:51;10.80;1.00
3626;DHT22;1827;50.534;8.316;2024-03-25T10:04:17;11.20;1.00
3626;DHT22;1827;50.534;8.316;2024-03-25T10:06:43;11.00;1.00
3626;DHT22;1827;50.534;8.316;2024-03-25T10:09:08;10.80;1.00
3626;DHT22;1827;50.534;8.316;2024-03-25T10:11:34;11.00;1.00
3626;DHT22;1827;50.534;8.316;2024-03-25T10:14:01;11.50;1.00
3626;DHT22;1827;50.534;8.316;2024-03-25T10:16:27;12.10;1.00
3626;DHT22;1827;50.534;8.316;2024-03-25T10:18:52;12.20;1.00
3626;DHT22;1827;50.534;8.316;2024-03-25T10:21:19;11.70;1.00
3626;DHT22;1827;50.534;8.316;2024-03-25T10:23:45;12.10;1.00
3626;DHT22;1827;50.534;8.316;2024-03-25T10:26:25;11.50;1.00
3626;DHT22;1827;50.534;8.316;2024-03-25T10:28:58;11.30;1.00
3626;DHT22;1827;50.534;8.316;2024-03-25T10:31:24;11.10;1.00
3626;DHT22;1827;50.534;8.316;2024-03-25T10:33:49;11.00;1.00
3626;DHT22;1827;50.534;8.316;2024-03-25T10:36:15;11.10;1.00
3626;DHT22;1827;50.534;8.316;2024-03-25T10:38:41;11.00;1.00
3626;DHT22;1827;50.534;8.316;2024-03-25T10:41:07;10.40;1.00
3626;DHT22;1827;50.534;8.316;2024-03-25T10:43:34;10.30;99.90
3626;DHT22;1827;50.534;8.316;2024-03-25T10:46:01;10.50;99.90
3626;DHT22;1827;50.534;8.316;2024-03-25T10:48:29;11.70;1.00
3626;DHT22;1827;50.534;8.316;2024-03-25T10:50:56;10.80;1.00
3626;DHT22;1827;50.534;8.316;2024-03-25T10:53:22;10.30;99.90
3626;DHT22;1827;50.534;8.316;2024-03-25T10:55:53;10.90;99.90
3626;DHT22;1827;50.534;8.316;2024-03-25T10:58:19;11.30;1.00
3626;DHT22;1827;50.534;8.316;2024-03-25T11:00:46;11.60;1.00
3626;DHT22;1827;50.534;8.316;2024-03-25T11:03:13;11.10;99.90
3626;DHT22;1827;50.534;8.316;2024-03-25T11:05:38;11.00;99.90
3626;DHT22;1827;50.534;8.316;2024-03-25T11:08:14;10.70;99.90
3626;DHT22;1827;50.534;8.316;2024-03-25T11:10:40;10.60;99.90
3626;DHT22;1827;50.534;8.316;2024-03-25T11:13:19;10.60;99.90
3626;DHT22;1827;50.534;8.316;2024-03-25T11:15:46;10.60;99.90
3626;DHT22;1827;50.534;8.316;2024-03-25T11:18:12;10.80;99.90
3626;DHT22;1827;50.534;8.316;2024-03-25T11:20:41;11.50;99.90
3626;DHT22;1827;50.534;8.316;2024-03-25T11:23:10;11.30;99.90
3626;DHT22;1827;50.534;8.316;2024-03-25T11:25:36;11.50;99.90
3626;DHT22;1827;50.534;8.316;2024-03-25T11:28:02;11.70;99.90
3626;DHT22;1827;50.534;8.316;2024-03-25T11:30:29;11.30;99.90
3626;DHT22;1827;50.534;8.316;2024-03-25T11:32:57;10.90;99.90
3626;DHT22;1827;50.534;8.316;2024-03-25T11:35:22;10.40;99.90
3626;DHT22;1827;50.534;8.316;2024-03-25T11:37:48;10.70;99.90
3626;DHT22;1827;50.534;8.316;2024-03-25T11:40:15;11.90;99.90
3626;DHT22;1827;50.534;8.316;2024-03-25T11:42:41;12.20;99.90
3626;DHT22;1827;50.534;8.316;2024-03-25T11:45:18;12.20;99.90
3626;DHT22;1827;50.534;8.316;2024-03-25T11:47:44;13.10;1.00
3626;DHT22;1827;50.534;8.316;2024-03-25T11:50:14;13.00;99.90
3626;DHT22;1827;50.534;8.316;2024-03-25T11:52:40;11.70;99.90
3626;DHT22;1827;50.534;8.316;2024-03-25T11:55:06;10.40;99.90
3626;DHT22;1827;50.534;8.316;2024-03-25T11:57:34;11.00;99.90
3626;DHT22;1827;50.534;8.316;2024-03-25T12:00:01;12.20;99.90
3626;DHT22;1827;50.534;8.316;2024-03-25T12:02:28;12.50;99.90
3626;DHT22;1827;50.534;8.316;2024-03-25T12:04:54;12.30;99.90
3626;DHT22;1827;50.534;8.316;2024-03-25T12:07:20;12.60;99.90
3626;DHT22;1827;50.534;8.316;2024-03-25T12:09:45;12.20;99.90
3626;DHT22;1827;50.534;8.316;2024-03-25T12:12:29;11.90;99.90
3626;DHT22;1827;50.534;8.316;2024-03-25T12:14:55;12.00;99.90
3626;DHT22;1827;50.534;8.316;2024-03-25T12:17:21;12.30;99.90
3626;DHT22;1827;50.534;8.316;2024-03-25T12:20:06;12.10;99.90
3626;DHT22;1827;50.534;8.316;2024-03-25T12:22:36;12.10;99.90
3626;DHT22;1827;50.534;8.316;2024-03-25T12:25:02;11.80;99.90
3626;DHT22;1827;50.534;8.316;2024-03-25T12:27:29;12.40;99.90
3626;DHT22;1827;50.534;8.316;2024-03-25T12:29:58;12.00;99.90
3626;DHT22;1827;50.534;8.316;2024-03-25T12:32:40;12.80;99.90
3626;DHT22;1827;50.534;8.316;2024-03-25T12:35:10;12.00;99.90
3626;DHT22;1827;50.534;8.316;2024-03-25T12:37:40;12.00;99.90
3626;DHT22;1827;50.534;8.316;2024-03-25T12:40:06;13.00;99.90
3626;DHT22;1827;50.534;8.316;2024-03-25T12:42:33;13.60;99.90
3626;DHT22;1827;50.534;8.316;2024-03-25T12:44:59;13.30;99.90
3626;DHT22;1827;50.534;8.316;2024-03-25T12:47:25;13.80;99.90
3626;DHT22;1827;50.534;8.316;2024-03-25T12:49:51;14.00;99.90
3626;DHT22;1827;50.534;8.316;2024-03-25T12:52:17;12.70;99.90
3626;DHT22;1827;50.534;8.316;2024-03-25T12:54:42;11.60;99.90
3626;DHT22;1827;50.534;8.316;2024-03-25T12:57:08;11.60;99.90
3626;DHT22;1827;50.534;8.316;2024-03-25T12:59:34;12.00;99.90
3626;DHT22;1827;50.534;8.316;2024-03-25T13:02:00;13.00;99.90
3626;DHT22;1827;50.534;8.316;2024-03-25T13:04:26;13.60;99.90
3626;DHT22;1827;50.534;8.316;2024-03-25T13:06:51;13.40;99.90
3626;DHT22;1827;50.534;8.316;2024-03-25T13:09:17;11.80;99.90
3626;DHT22;1827;50.534;8.316;2024-03-25T13:11:42;10.80;99.90
3626;DHT22;1827;50.534;8.316;2024-03-25T13:14:11;12.20;99.90
3626;DHT22;1827;50.534;8.316;2024-03-25T13:16:37;12.10;99.90
3626;DHT22;1827;50.534;8.316;2024-03-25T13:19:03;13.00;99.90
3626;DHT22;1827;50.534;8.316;2024-03-25T13:21:29;13.60;99.90
3626;DHT22;1827;50.534;8.316;2024-03-25T13:23:55;14.20;99.90
3626;DHT22;1827;50.534;8.316;2024-03-25T13:26:20;12.80;99.90
3626;DHT22;1827;50.534;8.316;2024-03-25T13:28:46;12.00;99.90
3626;DHT22;1827;50.534;8.316;2024-03-25T13:31:13;13.90;99.90
3626;DHT22;1827;50.534;8.316;2024-03-25T13:33:38;13.40;99.90
3626;DHT22;1827;50.534;8.316;2024-03-25T13:36:05;12.90;99.90
3626;DHT22;1827;50.534;8.316;2024-03-25T13:38:31;12.40;99.90
3626;DHT22;1827;50.534;8.316;2024-03-25T13:40:59;12.20;99.90
3626;DHT22;1827;50.534;8.316;2024-03-25T13:43:25;13.30;99.90
3626;DHT22;1827;50.534;8.316;2024-03-25T13:45:50;12.70;99.90
3626;DHT22;1827;50.534;8.316;2024-03-25T13:48:16;13.70;99.90
3626;DHT22;1827;50.534;8.316;2024-03-25T13:50:42;14.20;99.90
3626;DHT22;1827;50.534;8.316;2024-03-25T13:53:08;13.40;99.90
3626;DHT22;1827;50.534;8.316;2024-03-25T13:55:33;12.50;99.90
3626;DHT22;1827;50.534;8.316;2024-03-25T13:57:59;11.40;99.90
3626;DHT22;1827;50.534;8.316;2024-03-25T14:00:24;12.30;99.90
3626;DHT22;1827;50.534;8.316;2024-03-25T14:02:56;12.60;99.90
3626;DHT22;1827;50.534;8.316;2024-03-25T14:05:22;12.50;99.90
3626;DHT22;1827;50.534;8.316;2024-03-25T14:07:49;12.30;99.90
3626;DHT22;1827;50.534;8.316;2024-03-25T14:10:15;12.20;99.90
3626;DHT22;1827;50.534;8.316;2024-03-25T14:12:40;12.80;99.90
3626;DHT22;1827;50.534;8.316;2024-03-25T14:15:06;12.80;99.90
3626;DHT22;1827;50.534;8.316;2024-03-25T14:17:32;13.00;99.90
3626;DHT22;1827;50.534;8.316;2024-03-25T14:19:57;13.00;99.90
3626;DHT22;1827;50.534;8.316;2024-03-25T14:22:23;12.60;99.90
3626;DHT22;1827;50.534;8.316;2024-03-25T14:24:49;12.40;99.90
3626;DHT22;1827;50.534;8.316;2024-03-25T14:27:14;12.30;99.90
3626;DHT22;1827;50.534;8.316;2024-03-25T14:29:40;12.10;99.90
3626;DHT22;1827;50.534;8.316;2024-03-25T14:32:07;12.20;99.90
3626;DHT22;1827;50.534;8.316;2024-03-25T14:34:33;11.50;99.90
3626;DHT22;1827;50.534;8.316;2024-03-25T14:37:00;11.30;99.90
3626;DHT22;1827;50.534;8.316;2024-03-25T14:39:27;11.30;99.90
3626;DHT22;1827;50.534;8.316;2024-03-25T14:41:53;11.30;99.90
3626;DHT22;1827;50.534;8.316;2024-03-25T14:44:18;11.50;99.90
3626;DHT22;1827;50.534;8.316;2024-03-25T14:46:44;11.50;99.90
3626;DHT22;1827;50.534;8.316;2024-03-25T14:49:09;11.10;99.90
3626;DHT22;1827;50.534;8.316;2024-03-25T14:51:35;10.80;99.90
3626;DHT22;1827;50.534;8.316;2024-03-25T14:54:01;11.20;99.90
3626;DHT22;1827;50.534;8.316;2024-03-25T14:56:28;11.60;99.90
3626;DHT22;1827;50.534;8.316;2024-03-25T14:58:54;11.60;99.90
3626;DHT22;1827;50.534;8.316;2024-03-25T15:01:20;11.40;99.90
3626;DHT22;1827;50.534;8.316;2024-03-25T15:03:46;11.50;99.90
3626;DHT22;1827;50.534;8.316;2024-03-25T15:06:11;11.60;99.90
3626;DHT22;1827;50.534;8.316;2024-03-25T15:08:37;11.60;99.90
3626;DHT22;1827;50.534;8.316;2024-03-25T15:11:05;11.60;99.90
3626;DHT22;1827;50.534;8.316;2024-03-25T15:13:31;11.40;99.90
3626;DHT22;1827;50.534;8.316;2024-03-25T15:15:57;11.50;99.90
3626;DHT22;1827;50.534;8.316;2024-03-25T15:18:22;11.40;99.90
3626;DHT22;1827;50.534;8.316;2024-03-25T15:21:02;11.30;99.90
3626;DHT22;1827;50.534;8.316;2024-03-25T15:23:27;11.20;99.90
3626;DHT22;1827;50.534;8.316;2024-03-25T15:25:53;10.90;99.90
3626;DHT22;1827;50.534;8.316;2024-03-25T15:28:19;10.90;99.90
3626;DHT22;1827;50.534;8.316;2024-03-25T15:30:46;10.80;99.90
3626;DHT22;1827;50.534;8.316;2024-03-25T15:33:11;10.90;99.90
3626;DHT22;1827;50.534;8.316;2024-03-25T15:35:37;11.00;99.90
3626;DHT22;1827;50.534;8.316;2024-03-25T15:38:03;11.20;99.90
3626;DHT22;1827;50.534;8.316;2024-03-25T15:40:28;11.10;99.90
3626;DHT22;1827;50.534;8.316;2024-03-25T15:42:55;11.20;99.90
3626;DHT22;1827;50.534;8.316;2024-03-25T15:45:25;11.10;99.90
3626;DHT22;1827;50.534;8.316;2024-03-25T15:47:51;11.10;99.90
3626;DHT22;1827;50.534;8.316;2024-03-25T15:50:16;11.20;99.90
3626;DHT22;1827;50.534;8.316;2024-03-25T15:52:42;11.20;99.90
3626;DHT22;1827;50.534;8.316;2024-03-25T15:55:08;11.10;99.90
3626;DHT22;1827;50.534;8.316;2024-03-25T15:57:33;11.00;99.90
3626;DHT22;1827;50.534;8.316;2024-03-25T15:59:59;11.00;99.90
3626;DHT22;1827;50.534;8.316;2024-03-25T16:02:25;10.90;99.90
3626;DHT22;1827;50.534;8.316;2024-03-25T16:04:50;11.00;99.90
3626;DHT22;1827;50.534;8.316;2024-03-25T16:07:17;10.90;99.90
3626;DHT22;1827;50.534;8.316;2024-03-25T16:09:42;10.70;99.90